Terminal Aerodrome Forecast
Issued by NWS

Home | Current Version | Previous Version | Text Only | Print | Product List | Glossary On
Versions: 1 2 3 4 5 6 7 8 9 10 11 12 13 14 15 16 17
000
FTUS41 KPHI 242348
TAFPNE
TAF
KPNE 242348Z 2500/2524 29013G21KT P6SM SKC
     FM250100 31011KT P6SM SKC
     FM250700 29004KT P6SM SCT180
     FM251500 29008G15KT P6SM BKN180=

USA.gov is the U.S. government's official web portal to all federal, state and local government web resources and services.